Time;durP1;ratioP1;P1;durP2;ratioP2;P2;SDS_P1;SDS_P2;PMS_P1;PMS_P2;Temp;Humidity;BMP_temperature;BMP_pressure;BME280_temperature;BME280_humidity;BME280_pressure;Samples;Min_cycle;Max_cycle;Signal;HPM_P1;HPM_P2
2021/10/04 00:00:33;;;;;;;15.20;9.83;;;;;;;;;;4999380;28;20371;-57
2021/10/04 00:02:59;;;;;;;16.27;10.00;;;;;;;;;;5004165;28;20282;-58
2021/10/04 00:05:24;;;;;;;15.30;9.43;;;;;;;;;;4980187;28;20036;-57
2021/10/04 00:07:49;;;;;;;14.25;9.40;;;;;;;;;;5002487;28;20021;-57
2021/10/04 00:10:17;;;;;;;17.00;10.13;;;;;;;;;;5006339;28;20487;-58
2021/10/04 00:12:43;;;;;;;17.33;10.55;;;;;;;;;;5000902;28;20283;-58
2021/10/04 00:15:10;;;;;;;15.48;10.15;;;;;;;;;;4996540;28;20026;-57
2021/10/04 00:17:35;;;;;;;17.20;9.75;;;;;;;;;;5002964;28;20029;-57
2021/10/04 00:20:00;;;;;;;13.90;9.10;;;;;;;;;;4995699;28;20011;-57
2021/10/04 00:22:25;;;;;;;15.30;9.97;;;;;;;;;;4998128;28;20026;-57
2021/10/04 00:24:51;;;;;;;17.50;10.23;;;;;;;;;;5001090;28;20318;-58
2021/10/04 00:27:16;;;;;;;16.33;9.90;;;;;;;;;;4999955;28;20401;-56
2021/10/04 00:29:41;;;;;;;13.85;9.63;;;;;;;;;;5002859;28;20268;-57
2021/10/04 00:32:07;;;;;;;14.43;9.00;;;;;;;;;;5002705;28;20025;-58
2021/10/04 00:34:32;;;;;;;12.23;9.13;;;;;;;;;;5003422;28;20319;-57
2021/10/04 00:36:57;;;;;;;12.57;8.40;;;;;;;;;;5000850;28;20751;-57
2021/10/04 00:39:22;;;;;;;13.02;8.88;;;;;;;;;;4995028;28;20626;-56
2021/10/04 00:41:47;;;;;;;12.87;8.30;;;;;;;;;;4995450;28;20019;-57
2021/10/04 00:44:13;;;;;;;15.30;8.20;;;;;;;;;;5009018;28;20265;-58
2021/10/04 00:46:38;;;;;;;14.27;8.60;;;;;;;;;;5002623;28;20268;-57
2021/10/04 00:49:04;;;;;;;13.82;7.57;;;;;;;;;;4996923;28;20021;-57
2021/10/04 00:51:29;;;;;;;13.88;8.23;;;;;;;;;;4998959;28;20026;-57
2021/10/04 00:53:55;;;;;;;15.95;8.70;;;;;;;;;;4995979;28;20461;-57
2021/10/04 00:56:20;;;;;;;12.60;8.18;;;;;;;;;;4997317;28;20117;-56
2021/10/04 00:58:46;;;;;;;13.07;8.35;;;;;;;;;;4997203;28;21322;-56
2021/10/04 01:01:12;;;;;;;11.25;7.80;;;;;;;;;;5003023;28;20492;-57
2021/10/04 01:03:37;;;;;;;11.98;8.68;;;;;;;;;;4989823;28;20014;-57
2021/10/04 01:06:03;;;;;;;14.30;8.57;;;;;;;;;;5000846;28;20392;-56
2021/10/04 01:08:28;;;;;;;12.20;8.35;;;;;;;;;;4976492;28;20377;-56
2021/10/04 01:10:54;;;;;;;12.45;8.05;;;;;;;;;;5000353;28;20030;-57
2021/10/04 01:13:19;;;;;;;12.18;8.13;;;;;;;;;;4990526;28;20901;-57
2021/10/04 01:15:45;;;;;;;13.55;8.13;;;;;;;;;;4976055;28;20045;-57
2021/10/04 01:18:10;;;;;;;10.68;7.90;;;;;;;;;;4984820;28;20036;-57
2021/10/04 01:20:35;;;;;;;12.88;8.27;;;;;;;;;;5003482;28;20815;-57
2021/10/04 01:23:01;;;;;;;12.25;8.30;;;;;;;;;;5005335;28;20049;-57
2021/10/04 01:25:26;;;;;;;14.65;8.52;;;;;;;;;;4985656;28;20026;-57
2021/10/04 01:27:52;;;;;;;12.95;8.52;;;;;;;;;;4994943;28;20021;-57
2021/10/04 01:30:19;;;;;;;11.35;8.15;;;;;;;;;;5005685;28;20030;-57
2021/10/04 01:32:45;;;;;;;13.27;8.50;;;;;;;;;;5006256;28;20014;-58
2021/10/04 01:35:10;;;;;;;12.52;8.32;;;;;;;;;;4996076;28;20029;-57
2021/10/04 01:37:36;;;;;;;15.10;8.30;;;;;;;;;;5026755;28;20025;-57
2021/10/04 01:40:03;;;;;;;14.77;8.90;;;;;;;;;;5001305;28;20128;-57
2021/10/04 01:42:28;;;;;;;13.60;8.25;;;;;;;;;;5002583;28;20116;-57
2021/10/04 01:44:53;;;;;;;14.60;8.50;;;;;;;;;;5001404;28;20136;-57
2021/10/04 01:47:18;;;;;;;14.07;8.43;;;;;;;;;;4999413;28;20117;-57
2021/10/04 01:49:44;;;;;;;15.40;9.17;;;;;;;;;;4993625;28;20121;-57
2021/10/04 01:52:10;;;;;;;15.95;9.20;;;;;;;;;;5004907;28;20371;-58
2021/10/04 01:54:35;;;;;;;13.60;8.90;;;;;;;;;;5015252;28;20045;-57
2021/10/04 01:57:01;;;;;;;14.47;8.87;;;;;;;;;;5005405;28;20459;-57
2021/10/04 01:59:26;;;;;;;13.47;7.70;;;;;;;;;;5002693;28;20273;-57
2021/10/04 02:01:51;;;;;;;15.52;8.75;;;;;;;;;;5004672;28;20251;-56
2021/10/04 02:04:17;;;;;;;12.98;8.45;;;;;;;;;;5019353;28;20030;-58
2021/10/04 02:06:42;;;;;;;13.73;8.33;;;;;;;;;;5006600;28;20024;-57
2021/10/04 02:09:07;;;;;;;12.13;8.60;;;;;;;;;;5008259;28;20914;-57
2021/10/04 02:11:32;;;;;;;14.23;9.00;;;;;;;;;;4998558;28;20295;-57
2021/10/04 02:13:57;;;;;;;13.07;8.23;;;;;;;;;;4992881;28;20315;-57
2021/10/04 02:16:23;;;;;;;12.73;8.20;;;;;;;;;;4993370;28;20299;-57
2021/10/04 02:18:48;;;;;;;13.17;8.67;;;;;;;;;;5007005;28;20272;-57
2021/10/04 02:21:13;;;;;;;11.90;7.97;;;;;;;;;;5012484;28;20025;-57
2021/10/04 02:23:39;;;;;;;11.50;7.90;;;;;;;;;;5002716;28;20072;-57
2021/10/04 02:26:04;;;;;;;13.43;8.88;;;;;;;;;;5002422;28;20037;-58
2021/10/04 02:28:29;;;;;;;14.38;8.63;;;;;;;;;;5006240;28;20028;-58
2021/10/04 02:30:56;;;;;;;16.75;9.40;;;;;;;;;;5010821;28;20805;-58
2021/10/04 02:33:21;;;;;;;14.82;8.32;;;;;;;;;;5000866;28;20018;-57
2021/10/04 02:35:46;;;;;;;12.90;8.35;;;;;;;;;;5007949;28;20037;-58
2021/10/04 02:38:12;;;;;;;13.23;8.93;;;;;;;;;;5002238;28;20030;-57
2021/10/04 02:40:37;;;;;;;12.95;9.15;;;;;;;;;;5001313;28;20022;-57
2021/10/04 02:43:03;;;;;;;13.05;7.90;;;;;;;;;;5001246;28;20402;-58
2021/10/04 02:45:28;;;;;;;11.82;8.77;;;;;;;;;;5007430;28;20030;-57
2021/10/04 02:47:54;;;;;;;12.88;9.07;;;;;;;;;;5005008;28;20022;-56
2021/10/04 02:50:21;;;;;;;13.45;8.90;;;;;;;;;;5004748;28;20041;-58
2021/10/04 02:52:46;;;;;;;13.05;7.80;;;;;;;;;;5005504;28;20018;-57
2021/10/04 02:55:12;;;;;;;11.60;7.70;;;;;;;;;;5002099;28;20040;-58
2021/10/04 02:57:37;;;;;;;13.00;8.27;;;;;;;;;;5002623;28;20051;-58
2021/10/04 03:00:04;;;;;;;14.63;8.85;;;;;;;;;;5008355;28;20045;-57
2021/10/04 03:02:29;;;;;;;13.43;8.18;;;;;;;;;;5008236;28;20029;-58
2021/10/04 03:04:55;;;;;;;13.68;8.77;;;;;;;;;;5003603;28;20522;-57
2021/10/04 03:07:20;;;;;;;13.35;8.25;;;;;;;;;;5006208;28;20018;-57
2021/10/04 03:09:45;;;;;;;14.30;7.80;;;;;;;;;;5005286;28;20495;-58
2021/10/04 03:12:10;;;;;;;14.33;8.30;;;;;;;;;;5006984;28;20653;-58
2021/10/04 03:14:37;;;;;;;11.45;7.38;;;;;;;;;;5005524;28;20041;-57
2021/10/04 03:17:03;;;;;;;12.23;7.88;;;;;;;;;;4996206;28;20114;-59
2021/10/04 03:19:28;;;;;;;13.32;7.78;;;;;;;;;;5002976;28;20018;-59
2021/10/04 03:21:53;;;;;;;13.05;8.00;;;;;;;;;;5011979;28;20140;-58
2021/10/04 03:24:19;;;;;;;13.27;8.10;;;;;;;;;;5012634;28;20329;-58
2021/10/04 03:26:45;;;;;;;11.32;7.90;;;;;;;;;;4994861;28;20021;-58
2021/10/04 03:29:10;;;;;;;11.90;7.60;;;;;;;;;;5015740;28;20675;-58
2021/10/04 03:31:36;;;;;;;11.52;7.57;;;;;;;;;;5003254;28;20021;-59
2021/10/04 03:34:02;;;;;;;14.75;7.57;;;;;;;;;;5007306;28;20424;-58
2021/10/04 03:36:27;;;;;;;12.90;7.70;;;;;;;;;;5002406;28;20026;-58
2021/10/04 03:38:53;;;;;;;13.97;8.40;;;;;;;;;;5014740;28;20758;-57
2021/10/04 03:41:18;;;;;;;11.75;7.60;;;;;;;;;;5009022;28;20511;-59
2021/10/04 03:43:44;;;;;;;11.77;7.10;;;;;;;;;;5010011;28;20025;-57
2021/10/04 03:46:09;;;;;;;15.07;7.43;;;;;;;;;;4998342;28;20144;-59
2021/10/04 03:48:34;;;;;;;12.37;7.60;;;;;;;;;;5005319;28;20280;-60
2021/10/04 03:50:59;;;;;;;12.70;7.90;;;;;;;;;;5012287;28;20268;-59
2021/10/04 03:53:24;;;;;;;13.67;7.83;;;;;;;;;;5002422;28;20279;-63
2021/10/04 03:55:50;;;;;;;10.87;7.67;;;;;;;;;;5000414;28;20651;-59
2021/10/04 03:58:15;;;;;;;12.43;8.02;;;;;;;;;;5006337;28;20427;-60
2021/10/04 04:00:41;;;;;;;13.33;7.33;;;;;;;;;;5005128;28;20725;-58
2021/10/04 04:03:06;;;;;;;12.85;8.02;;;;;;;;;;5003606;28;20627;-59
2021/10/04 04:05:32;;;;;;;13.33;8.17;;;;;;;;;;5002490;28;20181;-59
2021/10/04 04:07:57;;;;;;;12.88;8.10;;;;;;;;;;5005633;28;20311;-58
2021/10/04 04:10:22;;;;;;;13.47;8.63;;;;;;;;;;5004806;28;20610;-59
2021/10/04 04:12:47;;;;;;;14.13;8.73;;;;;;;;;;4998407;28;20284;-59
2021/10/04 04:15:13;;;;;;;14.07;8.38;;;;;;;;;;5007843;28;20071;-59
2021/10/04 04:17:38;;;;;;;14.65;8.65;;;;;;;;;;4993428;28;20033;-58
2021/10/04 04:20:05;;;;;;;12.52;8.70;;;;;;;;;;5008173;28;20116;-59
2021/10/04 04:22:30;;;;;;;14.23;8.70;;;;;;;;;;5003607;28;20539;-59
2021/10/04 04:24:56;;;;;;;14.70;8.98;;;;;;;;;;4995391;28;20022;-58
2021/10/04 04:27:21;;;;;;;13.90;8.77;;;;;;;;;;4988003;28;20041;-59
2021/10/04 04:29:46;;;;;;;13.32;8.85;;;;;;;;;;5006492;28;20018;-60
2021/10/04 04:32:12;;;;;;;14.23;8.90;;;;;;;;;;4997512;28;20047;-59
2021/10/04 04:34:37;;;;;;;14.60;8.52;;;;;;;;;;5005344;28;20271;-58
2021/10/04 04:37:03;;;;;;;13.80;8.48;;;;;;;;;;4995443;28;20551;-59
2021/10/04 04:39:28;;;;;;;14.23;8.27;;;;;;;;;;4993392;28;20485;-56
2021/10/04 04:41:54;;;;;;;15.37;8.27;;;;;;;;;;4998180;28;20593;-59
2021/10/04 04:44:20;;;;;;;14.45;8.70;;;;;;;;;;5002212;28;20269;-60
2021/10/04 04:46:45;;;;;;;16.23;8.43;;;;;;;;;;5014313;28;20025;-58
2021/10/04 04:49:10;;;;;;;12.15;8.13;;;;;;;;;;4996863;28;20799;-58
2021/10/04 04:51:35;;;;;;;14.45;8.65;;;;;;;;;;5004575;28;20032;-59
2021/10/04 04:54:01;;;;;;;12.53;8.83;;;;;;;;;;5003215;28;20025;-59
2021/10/04 04:56:27;;;;;;;15.65;9.02;;;;;;;;;;5008799;28;20029;-58
2021/10/04 04:58:52;;;;;;;13.27;8.52;;;;;;;;;;5006064;28;20029;-58
2021/10/04 05:01:17;;;;;;;13.27;8.27;;;;;;;;;;5005540;28;20075;-58
2021/10/04 05:03:43;;;;;;;15.13;8.53;;;;;;;;;;5005561;28;20013;-59
2021/10/04 05:06:08;;;;;;;13.77;8.47;;;;;;;;;;5000839;28;20044;-60
2021/10/04 05:08:33;;;;;;;13.75;7.95;;;;;;;;;;5006451;28;20303;-58
2021/10/04 05:10:58;;;;;;;14.40;8.67;;;;;;;;;;5006658;28;20022;-61
2021/10/04 05:13:24;;;;;;;15.27;8.33;;;;;;;;;;5001421;28;20678;-59
2021/10/04 05:15:49;;;;;;;16.90;9.88;;;;;;;;;;4993891;28;20292;-58
2021/10/04 05:18:14;;;;;;;16.95;9.18;;;;;;;;;;5004249;28;20072;-59
2021/10/04 05:20:40;;;;;;;14.40;9.35;;;;;;;;;;5011079;28;20049;-58
2021/10/04 05:23:05;;;;;;;14.65;9.70;;;;;;;;;;5003224;28;20017;-59
2021/10/04 05:25:31;;;;;;;15.90;9.70;;;;;;;;;;5007420;28;20037;-60
2021/10/04 05:27:56;;;;;;;16.50;9.65;;;;;;;;;;5001094;28;20284;-59
2021/10/04 05:30:21;;;;;;;13.10;8.95;;;;;;;;;;5007095;28;20032;-58
2021/10/04 05:32:47;;;;;;;15.40;10.00;;;;;;;;;;5000591;28;20033;-59
2021/10/04 05:35:12;;;;;;;14.00;9.55;;;;;;;;;;5001441;28;20091;-59
2021/10/04 05:37:38;;;;;;;17.55;10.25;;;;;;;;;;4986987;28;20037;-58
2021/10/04 05:40:04;;;;;;;12.95;9.35;;;;;;;;;;4981677;28;20571;-58
2021/10/04 05:42:32;;;;;;;14.85;9.02;;;;;;;;;;4998645;28;20034;-58
2021/10/04 05:44:57;;;;;;;14.85;9.27;;;;;;;;;;4999483;28;20018;-58
2021/10/04 05:47:23;;;;;;;17.55;10.20;;;;;;;;;;4997822;28;20033;-58
2021/10/04 05:49:48;;;;;;;16.25;11.35;;;;;;;;;;4997056;28;20028;-58
2021/10/04 05:52:13;;;;;;;16.43;10.30;;;;;;;;;;5001232;28;20500;-58
2021/10/04 05:54:38;;;;;;;14.30;10.07;;;;;;;;;;5005488;28;20752;-58
2021/10/04 05:57:04;;;;;;;16.03;10.40;;;;;;;;;;5003013;28;20049;-58
2021/10/04 05:59:29;;;;;;;15.73;10.43;;;;;;;;;;5005430;28;20257;-58
2021/10/04 06:01:54;;;;;;;14.47;10.50;;;;;;;;;;4998631;28;20051;-60
2021/10/04 06:04:19;;;;;;;16.83;10.43;;;;;;;;;;5007196;28;20022;-59
2021/10/04 06:06:45;;;;;;;17.65;10.93;;;;;;;;;;4999677;28;20026;-58
2021/10/04 06:09:10;;;;;;;17.13;10.47;;;;;;;;;;4994082;28;20073;-59
2021/10/04 06:11:35;;;;;;;17.15;10.77;;;;;;;;;;5003365;28;21088;-58
2021/10/04 06:14:00;;;;;;;17.00;9.97;;;;;;;;;;4998439;28;20018;-58
2021/10/04 06:16:26;;;;;;;19.55;10.77;;;;;;;;;;4996996;28;20328;-58
2021/10/04 06:18:51;;;;;;;15.32;10.93;;;;;;;;;;5001456;28;20350;-58
2021/10/04 06:21:17;;;;;;;15.93;10.73;;;;;;;;;;4996658;28;20620;-59
2021/10/04 06:23:42;;;;;;;15.27;10.48;;;;;;;;;;4999491;28;20380;-58
2021/10/04 06:26:08;;;;;;;15.63;10.30;;;;;;;;;;4990291;28;20024;-59
2021/10/04 06:28:33;;;;;;;17.80;9.97;;;;;;;;;;5003335;28;20288;-57
2021/10/04 06:30:58;;;;;;;16.87;10.43;;;;;;;;;;5000414;28;20284;-59
2021/10/04 06:33:23;;;;;;;16.85;10.23;;;;;;;;;;4993253;28;20277;-60
2021/10/04 06:35:49;;;;;;;20.73;10.93;;;;;;;;;;5001450;28;20827;-58
2021/10/04 06:38:14;;;;;;;16.30;10.60;;;;;;;;;;4993406;28;20257;-59
2021/10/04 06:40:39;;;;;;;18.73;10.38;;;;;;;;;;5005789;28;20133;-58
2021/10/04 06:43:04;;;;;;;15.63;10.18;;;;;;;;;;4977299;28;20025;-59
2021/10/04 06:45:30;;;;;;;19.23;10.93;;;;;;;;;;4979768;28;20049;-59
2021/10/04 06:47:55;;;;;;;18.90;11.25;;;;;;;;;;4994725;28;20316;-58
2021/10/04 06:50:20;;;;;;;16.80;10.02;;;;;;;;;;5001141;28;20733;-58
2021/10/04 06:52:45;;;;;;;14.15;10.27;;;;;;;;;;5000314;28;20501;-58
2021/10/04 06:55:11;;;;;;;16.00;10.48;;;;;;;;;;4999528;28;20025;-58
2021/10/04 06:57:37;;;;;;;15.68;9.73;;;;;;;;;;5000360;28;20034;-60
2021/10/04 07:00:05;;;;;;;14.80;9.55;;;;;;;;;;5001942;28;20030;-59
2021/10/04 07:02:30;;;;;;;14.70;9.18;;;;;;;;;;5018026;28;20539;-58
2021/10/04 07:04:55;;;;;;;18.33;9.87;;;;;;;;;;5001420;28;20022;-59
2021/10/04 07:07:21;;;;;;;14.33;9.73;;;;;;;;;;4997132;28;20664;-59
2021/10/04 07:09:46;;;;;;;16.70;10.67;;;;;;;;;;4999360;28;20370;-58
2021/10/04 07:12:11;;;;;;;15.67;10.43;;;;;;;;;;4999994;28;20264;-60
2021/10/04 07:14:36;;;;;;;15.70;10.37;;;;;;;;;;5001609;28;20267;-60
2021/10/04 07:17:02;;;;;;;16.17;10.40;;;;;;;;;;5002666;28;21199;-59
2021/10/04 07:19:27;;;;;;;17.13;10.77;;;;;;;;;;5001756;28;20320;-59
2021/10/04 07:21:53;;;;;;;16.80;9.80;;;;;;;;;;5002037;28;20075;-58
2021/10/04 07:24:21;;;;;;;15.55;9.57;;;;;;;;;;5000537;28;20125;-58
2021/10/04 07:26:47;;;;;;;15.48;9.57;;;;;;;;;;5004166;28;20022;-58
2021/10/04 07:29:13;;;;;;;15.57;9.50;;;;;;;;;;4999016;28;20587;-59
2021/10/04 07:31:38;;;;;;;15.35;8.85;;;;;;;;;;5000271;28;20024;-58
2021/10/04 07:34:06;;;;;;;12.97;8.83;;;;;;;;;;4996126;28;20425;-60
2021/10/04 07:36:31;;;;;;;12.73;8.27;;;;;;;;;;4991908;28;20648;-58
2021/10/04 07:38:56;;;;;;;13.27;9.00;;;;;;;;;;4998075;28;20024;-58
2021/10/04 07:41:21;;;;;;;13.68;8.77;;;;;;;;;;4995844;28;20037;-58
2021/10/04 07:43:47;;;;;;;14.60;8.97;;;;;;;;;;4997021;28;20030;-58
2021/10/04 07:46:12;;;;;;;13.55;8.30;;;;;;;;;;4997902;28;20256;-60
2021/10/04 07:48:38;;;;;;;12.27;7.70;;;;;;;;;;4987366;28;20038;-59
2021/10/04 07:51:04;;;;;;;16.10;9.23;;;;;;;;;;4988472;28;20034;-59
2021/10/04 07:53:31;;;;;;;13.50;8.63;;;;;;;;;;5000510;28;20317;-58
2021/10/04 07:55:56;;;;;;;15.10;8.07;;;;;;;;;;4998640;28;20309;-58
2021/10/04 07:58:21;;;;;;;12.65;7.15;;;;;;;;;;4998807;28;20378;-58
2021/10/04 08:00:47;;;;;;;11.50;7.97;;;;;;;;;;5002446;28;20030;-59
2021/10/04 08:03:12;;;;;;;14.55;8.35;;;;;;;;;;5001941;28;20022;-58
2021/10/04 08:05:37;;;;;;;11.60;8.27;;;;;;;;;;5003624;28;20105;-59
2021/10/04 08:08:02;;;;;;;13.53;8.63;;;;;;;;;;4994572;28;20335;-58
2021/10/04 08:10:30;;;;;;;14.10;8.32;;;;;;;;;;5003071;28;20291;-59
2021/10/04 08:12:55;;;;;;;12.32;8.63;;;;;;;;;;5001009;28;20596;-58
2021/10/04 08:15:20;;;;;;;13.63;8.75;;;;;;;;;;5000959;28;20112;-60
2021/10/04 08:17:48;;;;;;;16.33;8.23;;;;;;;;;;4999112;28;20022;-59
2021/10/04 08:20:13;;;;;;;15.77;9.13;;;;;;;;;;4998561;28;20261;-60
2021/10/04 08:22:39;;;;;;;12.73;8.07;;;;;;;;;;5007378;28;20726;-59
2021/10/04 08:25:05;;;;;;;13.85;8.45;;;;;;;;;;4994183;28;20348;-59
2021/10/04 08:27:30;;;;;;;13.82;8.80;;;;;;;;;;5001760;28;20025;-60
2021/10/04 08:29:55;;;;;;;13.25;8.55;;;;;;;;;;4999240;28;20014;-60
2021/10/04 08:32:21;;;;;;;14.23;9.10;;;;;;;;;;4991208;28;20018;-58
2021/10/04 08:34:46;;;;;;;12.52;8.88;;;;;;;;;;4995349;28;20025;-59
2021/10/04 08:37:11;;;;;;;13.23;8.90;;;;;;;;;;4996193;28;20018;-58
2021/10/04 08:39:36;;;;;;;11.45;8.40;;;;;;;;;;4994889;28;21479;-59
2021/10/04 08:42:02;;;;;;;12.63;8.20;;;;;;;;;;4998829;28;20097;-57
2021/10/04 08:44:29;;;;;;;14.05;9.73;;;;;;;;;;5001779;28;20677;-58
2021/10/04 08:46:54;;;;;;;14.13;8.55;;;;;;;;;;4998091;28;20079;-58
2021/10/04 08:49:20;;;;;;;14.70;8.68;;;;;;;;;;5014038;28;20522;-58
2021/10/04 08:51:46;;;;;;;16.20;8.80;;;;;;;;;;4986145;28;20064;-57
2021/10/04 08:54:11;;;;;;;13.32;8.13;;;;;;;;;;4998001;28;20091;-58
2021/10/04 08:56:37;;;;;;;12.90;8.02;;;;;;;;;;4996571;28;20029;-58
2021/10/04 08:59:02;;;;;;;13.32;8.00;;;;;;;;;;4996053;28;20473;-58
2021/10/04 09:01:28;;;;;;;12.27;7.53;;;;;;;;;;5004719;28;20434;-57
2021/10/04 09:03:54;;;;;;;11.68;8.10;;;;;;;;;;4995512;28;20029;-58
2021/10/04 09:06:24;;;;;;;15.05;8.40;;;;;;;;;;5005624;28;20439;-58
2021/10/04 09:08:53;;;;;;;16.10;8.98;;;;;;;;;;4993530;28;20037;-58
2021/10/04 09:11:27;;;;;;;14.13;8.75;;;;;;;;;;4997847;28;20158;-58
2021/10/04 09:13:52;;;;;;;13.18;8.98;;;;;;;;;;4999309;28;20018;-58
2021/10/04 09:16:17;;;;;;;18.15;9.15;;;;;;;;;;5000521;28;20029;-57
2021/10/04 09:18:43;;;;;;;15.98;9.10;;;;;;;;;;5000337;28;20104;-57
2021/10/04 09:21:11;;;;;;;13.88;9.05;;;;;;;;;;4999411;28;20673;-58
2021/10/04 09:23:48;;;;;;;14.88;8.70;;;;;;;;;;4999778;28;20026;-58
2021/10/04 09:26:25;;;;;;;12.35;7.32;;;;;;;;;;4995849;28;20019;-58
2021/10/04 09:28:58;;;;;;;14.30;8.38;;;;;;;;;;4994298;28;20022;-58
2021/10/04 09:31:28;;;;;;;11.98;8.45;;;;;;;;;;4997087;28;20022;-57
2021/10/04 09:34:12;;;;;;;14.82;8.93;;;;;;;;;;4995790;28;20036;-58
2021/10/04 09:36:48;;;;;;;16.13;8.85;;;;;;;;;;4996547;28;20026;-58
2021/10/04 09:39:16;;;;;;;11.38;7.50;;;;;;;;;;5000139;28;20517;-58
2021/10/04 09:41:59;;;;;;;13.48;7.85;;;;;;;;;;4998216;28;20014;-58
2021/10/04 09:44:25;;;;;;;12.43;7.97;;;;;;;;;;4995005;28;20348;-58
2021/10/04 09:46:50;;;;;;;12.23;8.10;;;;;;;;;;5000069;28;20053;-57
2021/10/04 09:49:16;;;;;;;12.38;7.85;;;;;;;;;;4991380;28;20538;-59
2021/10/04 09:51:51;;;;;;;12.33;7.13;;;;;;;;;;5003054;28;20013;-58
2021/10/04 09:54:16;;;;;;;12.98;7.72;;;;;;;;;;4979038;28;20272;-57
2021/10/04 09:56:41;;;;;;;14.80;7.95;;;;;;;;;;5014603;28;20026;-58
2021/10/04 09:59:09;;;;;;;14.37;8.13;;;;;;;;;;4984525;28;20018;-57
2021/10/04 10:01:35;;;;;;;14.80;8.40;;;;;;;;;;5003512;28;20902;-57
2021/10/04 10:04:00;;;;;;;12.05;7.80;;;;;;;;;;5001505;28;20041;-57
2021/10/04 10:06:25;;;;;;;12.52;7.70;;;;;;;;;;4994983;28;20026;-58
2021/10/04 10:08:51;;;;;;;11.93;7.13;;;;;;;;;;5000457;28;20141;-58
2021/10/04 10:11:22;;;;;;;14.23;8.27;;;;;;;;;;4999729;28;20118;-58
2021/10/04 10:13:48;;;;;;;15.18;8.98;;;;;;;;;;4995864;28;20072;-58
2021/10/04 10:16:20;;;;;;;13.98;8.55;;;;;;;;;;4993653;28;20026;-58
2021/10/04 10:18:51;;;;;;;13.82;9.00;;;;;;;;;;4997566;28;20076;-57
2021/10/04 10:21:23;;;;;;;14.93;8.63;;;;;;;;;;4992346;28;20056;-57
2021/10/04 10:23:55;;;;;;;14.43;8.48;;;;;;;;;;4997915;28;20598;-58
2021/10/04 10:26:23;;;;;;;15.18;8.25;;;;;;;;;;4999639;28;20033;-58
2021/10/04 10:28:49;;;;;;;13.35;7.60;;;;;;;;;;5006941;28;20036;-61
2021/10/04 10:31:14;;;;;;;11.02;6.38;;;;;;;;;;4998955;28;20026;-57
2021/10/04 10:33:42;;;;;;;10.02;6.25;;;;;;;;;;5003787;28;20029;-57
2021/10/04 10:36:07;;;;;;;12.82;6.97;;;;;;;;;;5006489;28;20163;-58
2021/10/04 10:38:53;;;;;;;10.97;6.73;;;;;;;;;;4999010;28;20513;-57
2021/10/04 10:44:22;;;;;;;10.27;6.40;;;;;;;;;;4996378;28;20060;-58
2021/10/04 10:46:53;;;;;;;12.40;6.88;;;;;;;;;;5001929;28;20026;-58
2021/10/04 10:49:36;;;;;;;11.40;6.55;;;;;;;;;;4996622;28;20037;-58
2021/10/04 10:52:15;;;;;;;10.65;6.85;;;;;;;;;;4995462;28;20481;-58
2021/10/04 10:54:40;;;;;;;11.43;7.28;;;;;;;;;;5001645;28;20367;-58
2021/10/04 10:57:06;;;;;;;12.83;7.87;;;;;;;;;;5000822;28;20389;-58
2021/10/04 10:59:31;;;;;;;12.63;6.97;;;;;;;;;;4986056;28;20286;-58
2021/10/04 11:01:56;;;;;;;9.95;6.15;;;;;;;;;;4990032;28;20022;-59
2021/10/04 11:04:38;;;;;;;10.52;6.07;;;;;;;;;;5002901;28;20022;-59
2021/10/04 11:07:03;;;;;;;11.55;6.05;;;;;;;;;;5006092;28;20017;-58
2021/10/04 11:09:48;;;;;;;10.55;6.15;;;;;;;;;;5005103;28;20045;-58
2021/10/04 11:12:13;;;;;;;10.02;6.15;;;;;;;;;;4992488;28;20504;-58
2021/10/04 11:15:08;;;;;;;10.40;6.45;;;;;;;;;;5000720;28;20026;-59
2021/10/04 11:17:51;;;;;;;10.18;6.65;;;;;;;;;;4982860;28;20118;-57
2021/10/04 11:20:17;;;;;;;10.10;5.95;;;;;;;;;;5003129;28;20040;-57
2021/10/04 11:22:42;;;;;;;10.55;6.35;;;;;;;;;;5000205;28;20025;-59
2021/10/04 11:25:08;;;;;;;14.05;8.23;;;;;;;;;;5001493;28;20436;-58
2021/10/04 11:27:46;;;;;;;13.02;7.53;;;;;;;;;;5000150;28;20075;-58
2021/10/04 11:30:11;;;;;;;14.85;8.23;;;;;;;;;;5014693;28;20022;-58
2021/10/04 11:32:37;;;;;;;11.50;6.07;;;;;;;;;;4997212;28;20495;-58
2021/10/04 11:35:09;;;;;;;9.75;6.18;;;;;;;;;;5004713;28;20068;-57
2021/10/04 11:37:35;;;;;;;9.27;5.68;;;;;;;;;;5001296;28;20221;-57
2021/10/04 11:40:00;;;;;;;11.90;6.40;;;;;;;;;;5013419;28;20372;-58
2021/10/04 11:42:26;;;;;;;10.13;5.80;;;;;;;;;;5004050;28;20304;-58
2021/10/04 11:44:51;;;;;;;11.68;7.20;;;;;;;;;;5001769;28;20264;-58
2021/10/04 11:47:17;;;;;;;11.35;6.63;;;;;;;;;;5014329;28;20021;-57
2021/10/04 11:49:44;;;;;;;12.40;6.27;;;;;;;;;;4995354;28;20710;-58
2021/10/04 11:52:15;;;;;;;8.55;5.38;;;;;;;;;;5011013;28;20288;-57
2021/10/04 11:54:47;;;;;;;11.88;6.50;;;;;;;;;;4996948;28;20014;-59
2021/10/04 11:57:12;;;;;;;8.52;5.18;;;;;;;;;;5016577;28;20109;-58
2021/10/04 11:59:58;;;;;;;8.65;4.80;;;;;;;;;;5004212;28;20100;-57
2021/10/04 12:05:35;;;;;;;9.98;4.85;;;;;;;;;;4963863;28;20143;-58
2021/10/04 12:08:01;;;;;;;8.68;4.90;;;;;;;;;;5003282;28;20029;-57
2021/10/04 12:10:40;;;;;;;9.48;4.93;;;;;;;;;;5008055;28;20068;-57
2021/10/04 12:13:07;;;;;;;9.23;4.80;;;;;;;;;;5004585;28;20021;-58
2021/10/04 12:15:32;;;;;;;10.00;5.47;;;;;;;;;;5006880;28;20465;-57
2021/10/04 12:21:16;;;;;;;8.18;4.90;;;;;;;;;;5002212;28;20032;-57
2021/10/04 12:23:41;;;;;;;9.75;4.97;;;;;;;;;;4999218;28;20025;-57
2021/10/04 12:26:07;;;;;;;9.85;5.80;;;;;;;;;;5011819;28;20106;-57
2021/10/04 12:28:42;;;;;;;9.82;5.30;;;;;;;;;;5007490;28;20473;-56
2021/10/04 12:31:07;;;;;;;9.60;5.40;;;;;;;;;;5002285;28;20493;-57
2021/10/04 12:33:42;;;;;;;9.00;5.40;;;;;;;;;;5004341;28;20207;-58
2021/10/04 12:36:07;;;;;;;8.43;5.13;;;;;;;;;;4998804;28;20957;-57
2021/10/04 12:38:33;;;;;;;7.88;4.72;;;;;;;;;;4997134;28;20519;-56
2021/10/04 12:41:00;;;;;;;9.60;5.30;;;;;;;;;;5014330;28;20099;-57
2021/10/04 12:43:27;;;;;;;8.75;4.45;;;;;;;;;;5005981;28;20051;-58
2021/10/04 12:45:52;;;;;;;8.93;5.05;;;;;;;;;;5004189;28;20341;-58
2021/10/04 12:48:18;;;;;;;10.07;5.40;;;;;;;;;;5007023;28;20141;-57
2021/10/04 12:50:44;;;;;;;7.60;4.82;;;;;;;;;;5000964;28;20022;-59
2021/10/04 12:53:20;;;;;;;9.73;6.68;;;;;;;;;;4950482;28;20112;-57
2021/10/04 12:56:06;;;;;;;8.30;4.65;;;;;;;;;;4997450;28;20722;-58
2021/10/04 12:58:33;;;;;;;7.97;4.05;;;;;;;;;;5001069;28;20563;-57
2021/10/04 13:01:09;;;;;;;12.60;8.32;;;;;;;;;;5004451;28;20021;-57
2021/10/04 13:04:07;;;;;;;13.82;9.00;;;;;;;;;;4998882;28;20025;-58
2021/10/04 13:06:34;;;;;;;7.88;4.13;;;;;;;;;;4971111;28;20563;-57
2021/10/04 13:09:00;;;;;;;9.30;5.00;;;;;;;;;;4981016;28;20121;-59
2021/10/04 13:11:26;;;;;;;10.70;5.95;;;;;;;;;;5011046;28;20108;-59
2021/10/04 13:13:52;;;;;;;10.35;5.90;;;;;;;;;;4993574;28;20029;-59
2021/10/04 13:16:18;;;;;;;7.82;4.85;;;;;;;;;;5005266;28;20022;-59
2021/10/04 13:18:43;;;;;;;6.57;3.42;;;;;;;;;;5012446;28;20030;-56
2021/10/04 13:21:08;;;;;;;7.43;4.07;;;;;;;;;;5005790;28;20026;-58
2021/10/04 13:23:35;;;;;;;9.32;4.88;;;;;;;;;;5005142;28;20271;-60
2021/10/04 13:26:01;;;;;;;7.72;5.20;;;;;;;;;;4998289;28;20088;-57
2021/10/04 13:28:27;;;;;;;11.60;4.85;;;;;;;;;;4995730;28;20578;-58
2021/10/04 13:30:52;;;;;;;9.85;6.78;;;;;;;;;;5006409;28;20045;-59
2021/10/04 13:33:18;;;;;;;8.63;5.32;;;;;;;;;;4997164;28;20477;-57
2021/10/04 13:35:44;;;;;;;8.32;4.82;;;;;;;;;;4996171;28;20357;-57
2021/10/04 13:38:09;;;;;;;7.25;4.00;;;;;;;;;;5020378;28;20022;-58
2021/10/04 13:40:36;;;;;;;6.70;3.58;;;;;;;;;;5006953;28;20022;-58
2021/10/04 13:43:01;;;;;;;7.10;4.25;;;;;;;;;;4974113;28;20865;-59
2021/10/04 13:45:27;;;;;;;6.47;3.55;;;;;;;;;;4942362;28;20542;-56
2021/10/04 13:47:52;;;;;;;6.63;3.80;;;;;;;;;;5012362;28;20034;-57
2021/10/04 13:50:19;;;;;;;9.35;4.60;;;;;;;;;;4999107;28;20524;-57
2021/10/04 13:52:45;;;;;;;7.45;4.50;;;;;;;;;;4998331;28;20030;-58
2021/10/04 13:55:10;;;;;;;8.38;4.68;;;;;;;;;;5001048;28;20366;-58
2021/10/04 13:57:35;;;;;;;9.02;4.35;;;;;;;;;;5016680;28;20064;-58
2021/10/04 14:00:01;;;;;;;9.00;4.97;;;;;;;;;;4950978;28;20028;-59
2021/10/04 14:02:26;;;;;;;7.32;4.05;;;;;;;;;;5005405;28;20354;-59
2021/10/04 14:04:52;;;;;;;7.53;4.07;;;;;;;;;;5001086;28;20523;-59
2021/10/04 14:07:17;;;;;;;7.05;3.72;;;;;;;;;;5018598;28;20383;-59
2021/10/04 14:09:42;;;;;;;8.67;4.27;;;;;;;;;;4999586;28;20696;-57
2021/10/04 14:12:07;;;;;;;8.73;3.73;;;;;;;;;;4999466;28;20347;-57
2021/10/04 14:14:33;;;;;;;8.77;3.92;;;;;;;;;;4992615;28;20272;-58
2021/10/04 14:16:58;;;;;;;6.53;3.47;;;;;;;;;;5001842;28;20026;-57
2021/10/04 14:19:23;;;;;;;6.87;3.70;;;;;;;;;;5010779;28;20380;-57
2021/10/04 14:21:49;;;;;;;5.90;3.00;;;;;;;;;;4999944;28;20269;-57
2021/10/04 14:24:14;;;;;;;7.70;4.70;;;;;;;;;;4999194;28;20269;-59
2021/10/04 14:26:39;;;;;;;8.43;3.50;;;;;;;;;;5003602;28;20033;-58
2021/10/04 14:29:05;;;;;;;6.63;3.90;;;;;;;;;;5000156;28;20362;-57
2021/10/04 14:31:31;;;;;;;7.93;4.50;;;;;;;;;;4945250;28;20331;-57
2021/10/04 14:33:56;;;;;;;6.72;3.35;;;;;;;;;;5004921;28;20265;-59
2021/10/04 14:36:22;;;;;;;7.72;4.68;;;;;;;;;;5004062;28;20018;-57